Tropical Cyclones
[Index]
Main Index Home Page Stock Weather Photos Extreme Storms Discussion Storm News and Storm Chasing Reports Tropical Cyclones / Hurricanes / Typhoons Weather Data and Links Wild Fires / Bushfires Weather Observation Techniques Weather Picture Catalogue Tornado Pictures and Reports Stock Video Footage and DVDs for sale
Season 2010-2011 Tropical Cyclone ANTHONY Track Map
Season 2010-2011 Summaries: [BoM-AU] [JTWC-AU] [JTWC-SIO] [JTWC-SPAC] [JTWC-SH]
<<- Previous TC | BoM 2010-2011 Season | Next TC ->>

click for intensity scale information  Lat/long Grid: Show Hide

 Date Labels: Show Hide

Bureau of Meteorology Tropical Cyclone Data

Name: ANTHONY
Number: 945 / 201011_11

23 Jan 2011 00:00 UTC to 30 Jan 2011 18:00 UTC

    date/time    lat    long    hPa   cat  kts
2011-01-23 00   15.3   148.9    997         30          
2011-01-23 06   15.7   151.0    990    1    40          
2011-01-23 12   16.4   153.2    990    1    45          
2011-01-23 18   16.9   155.2    993    1    35          
2011-01-24 00   17.4   156.3    998         30          
2011-01-24 06   18.8   158.5   1002         25          
2011-01-24 12   18.5   159.8   1002         25          
2011-01-24 18   19.2   160.6   1000         25          
2011-01-25 00   19.5   160.8    998         25          
2011-01-25 06   19.6   160.6   1000         20          
2011-01-25 12   19.5   159.9   1001         25          
2011-01-25 18   19.1   159.7    997         30          
2011-01-26 00   19.1   159.5    996         30          
2011-01-26 06   18.9   158.5   1000         30          
2011-01-26 12   18.6   157.6   1002         30          
2011-01-26 18   18.4   156.6   1003         30          
2011-01-27 00   17.9   155.6   1000         30          
2011-01-27 06   17.6   155.1   1002         25          
2011-01-27 12   16.5   154.4    999         30          
2011-01-27 18   15.9   155.9    992    1    35          
2011-01-28 00   16.0   155.5    993    1    35          
2011-01-28 06   16.0   155.2    995    1    35          
2011-01-28 12   15.5   154.9   1001         30          
2011-01-28 18   15.4   154.6   1000         25          
2011-01-29 00   15.3   154.3    999         25          
2011-01-29 06   15.6   153.7    999         30          
2011-01-29 12   15.8   153.4    998         30          
2011-01-29 18   17.2   152.2   1001         30          
2011-01-30 00   18.3   151.0    999         35          
2011-01-30 06   19.3   149.5    990    1    45          
2011-01-30 12   19.9   148.2    989    1    50          
2011-01-30 18   21.4   146.6   1004         25          
Winds are 10-min average.

Tropical cyclone tracks developed by Michael Bath using data from the Bureau of Meteorology and Google Maps.


[Australian Severe Weather index] [Copyright Notice] [Email Contacts] [Search This Site] [Privacy Policy]
Document: tropical_cyclone_anthony.htm Updated: 29 June 2017